sensor_id;sensor_type;location;lat;lon;timestamp;P1;durP1;ratioP1;P2;durP2;ratioP2
5890;SDS011;2971;52.420;7.080;2023-12-20T00:01:19;10.60;;;5.67;;
5890;SDS011;2971;52.420;7.080;2023-12-20T00:03:45;15.10;;;6.60;;
5890;SDS011;2971;52.420;7.080;2023-12-20T00:06:10;12.77;;;6.23;;
5890;SDS011;2971;52.420;7.080;2023-12-20T00:08:36;12.53;;;6.00;;
5890;SDS011;2971;52.420;7.080;2023-12-20T00:11:03;14.07;;;6.77;;
5890;SDS011;2971;52.420;7.080;2023-12-20T00:13:29;17.23;;;6.63;;
5890;SDS011;2971;52.420;7.080;2023-12-20T00:15:54;13.57;;;6.83;;
5890;SDS011;2971;52.420;7.080;2023-12-20T00:18:20;12.83;;;5.83;;
5890;SDS011;2971;52.420;7.080;2023-12-20T00:20:45;17.73;;;5.87;;
5890;SDS011;2971;52.420;7.080;2023-12-20T00:23:11;18.93;;;6.50;;
5890;SDS011;2971;52.420;7.080;2023-12-20T00:25:36;19.30;;;6.40;;
5890;SDS011;2971;52.420;7.080;2023-12-20T00:28:04;14.40;;;5.97;;
5890;SDS011;2971;52.420;7.080;2023-12-20T00:30:29;14.80;;;5.83;;
5890;SDS011;2971;52.420;7.080;2023-12-20T00:32:55;16.90;;;6.10;;
5890;SDS011;2971;52.420;7.080;2023-12-20T00:35:20;11.40;;;5.80;;
5890;SDS011;2971;52.420;7.080;2023-12-20T00:37:46;13.80;;;5.70;;
5890;SDS011;2971;52.420;7.080;2023-12-20T00:40:12;13.60;;;5.17;;
5890;SDS011;2971;52.420;7.080;2023-12-20T00:42:38;15.43;;;5.43;;
5890;SDS011;2971;52.420;7.080;2023-12-20T00:45:05;14.80;;;5.33;;
5890;SDS011;2971;52.420;7.080;2023-12-20T00:47:31;14.03;;;5.27;;
5890;SDS011;2971;52.420;7.080;2023-12-20T00:49:57;15.13;;;5.77;;
5890;SDS011;2971;52.420;7.080;2023-12-20T00:52:23;14.53;;;4.97;;
5890;SDS011;2971;52.420;7.080;2023-12-20T00:54:48;13.50;;;4.80;;
5890;SDS011;2971;52.420;7.080;2023-12-20T00:57:14;14.77;;;4.87;;
5890;SDS011;2971;52.420;7.080;2023-12-20T00:59:40;15.60;;;4.73;;
5890;SDS011;2971;52.420;7.080;2023-12-20T01:02:07;14.43;;;4.50;;
5890;SDS011;2971;52.420;7.080;2023-12-20T01:04:34;14.33;;;5.03;;
5890;SDS011;2971;52.420;7.080;2023-12-20T01:06:59;16.30;;;4.57;;
5890;SDS011;2971;52.420;7.080;2023-12-20T01:09:25;13.60;;;4.50;;
5890;SDS011;2971;52.420;7.080;2023-12-20T01:11:52;15.30;;;4.33;;
5890;SDS011;2971;52.420;7.080;2023-12-20T01:14:18;12.57;;;4.27;;
5890;SDS011;2971;52.420;7.080;2023-12-20T01:16:43;10.60;;;4.03;;
5890;SDS011;2971;52.420;7.080;2023-12-20T01:19:10;16.90;;;4.53;;
5890;SDS011;2971;52.420;7.080;2023-12-20T01:21:36;15.97;;;4.63;;
5890;SDS011;2971;52.420;7.080;2023-12-20T01:24:01;13.80;;;4.80;;
5890;SDS011;2971;52.420;7.080;2023-12-20T01:26:27;16.57;;;4.57;;
5890;SDS011;2971;52.420;7.080;2023-12-20T01:28:53;15.93;;;4.47;;
5890;SDS011;2971;52.420;7.080;2023-12-20T01:31:18;13.43;;;3.97;;
5890;SDS011;2971;52.420;7.080;2023-12-20T01:33:44;15.10;;;3.93;;
5890;SDS011;2971;52.420;7.080;2023-12-20T01:36:11;14.27;;;4.17;;
5890;SDS011;2971;52.420;7.080;2023-12-20T01:38:36;20.33;;;4.70;;
5890;SDS011;2971;52.420;7.080;2023-12-20T01:41:02;15.77;;;4.57;;
5890;SDS011;2971;52.420;7.080;2023-12-20T01:43:28;16.00;;;4.90;;
5890;SDS011;2971;52.420;7.080;2023-12-20T01:45:54;15.67;;;4.73;;
5890;SDS011;2971;52.420;7.080;2023-12-20T01:48:21;18.27;;;5.10;;
5890;SDS011;2971;52.420;7.080;2023-12-20T01:50:47;9.57;;;3.80;;
5890;SDS011;2971;52.420;7.080;2023-12-20T01:53:14;15.60;;;4.10;;
5890;SDS011;2971;52.420;7.080;2023-12-20T01:55:41;15.47;;;4.83;;
5890;SDS011;2971;52.420;7.080;2023-12-20T01:58:07;18.80;;;4.53;;
5890;SDS011;2971;52.420;7.080;2023-12-20T02:00:34;11.20;;;4.17;;
5890;SDS011;2971;52.420;7.080;2023-12-20T02:03:00;13.37;;;4.60;;
5890;SDS011;2971;52.420;7.080;2023-12-20T02:05:28;14.10;;;4.80;;
5890;SDS011;2971;52.420;7.080;2023-12-20T02:07:54;15.70;;;5.20;;
5890;SDS011;2971;52.420;7.080;2023-12-20T02:10:21;15.80;;;5.30;;
5890;SDS011;2971;52.420;7.080;2023-12-20T02:12:48;13.13;;;4.90;;
5890;SDS011;2971;52.420;7.080;2023-12-20T02:15:13;17.13;;;5.13;;
5890;SDS011;2971;52.420;7.080;2023-12-20T02:17:40;21.80;;;5.60;;
5890;SDS011;2971;52.420;7.080;2023-12-20T02:20:06;17.37;;;5.30;;
5890;SDS011;2971;52.420;7.080;2023-12-20T02:22:33;18.73;;;5.53;;
5890;SDS011;2971;52.420;7.080;2023-12-20T02:24:59;22.20;;;5.90;;
5890;SDS011;2971;52.420;7.080;2023-12-20T02:27:24;18.33;;;5.60;;
5890;SDS011;2971;52.420;7.080;2023-12-20T02:29:50;24.07;;;5.70;;
5890;SDS011;2971;52.420;7.080;2023-12-20T02:32:16;19.13;;;6.23;;
5890;SDS011;2971;52.420;7.080;2023-12-20T02:34:42;23.23;;;5.90;;
5890;SDS011;2971;52.420;7.080;2023-12-20T02:37:08;18.10;;;5.47;;
5890;SDS011;2971;52.420;7.080;2023-12-20T02:39:35;20.13;;;6.37;;
5890;SDS011;2971;52.420;7.080;2023-12-20T02:42:00;19.27;;;6.13;;
5890;SDS011;2971;52.420;7.080;2023-12-20T02:44:26;14.73;;;5.60;;
5890;SDS011;2971;52.420;7.080;2023-12-20T02:46:52;17.90;;;5.70;;
5890;SDS011;2971;52.420;7.080;2023-12-20T02:49:17;13.70;;;4.70;;
5890;SDS011;2971;52.420;7.080;2023-12-20T02:51:43;13.07;;;5.33;;
5890;SDS011;2971;52.420;7.080;2023-12-20T02:54:09;16.93;;;5.77;;
5890;SDS011;2971;52.420;7.080;2023-12-20T02:56:36;19.80;;;5.13;;
5890;SDS011;2971;52.420;7.080;2023-12-20T02:59:01;16.80;;;5.53;;
5890;SDS011;2971;52.420;7.080;2023-12-20T03:01:27;12.27;;;4.97;;
5890;SDS011;2971;52.420;7.080;2023-12-20T03:03:53;21.20;;;5.30;;
5890;SDS011;2971;52.420;7.080;2023-12-20T03:06:19;20.50;;;5.20;;
5890;SDS011;2971;52.420;7.080;2023-12-20T03:08:44;18.63;;;5.10;;
5890;SDS011;2971;52.420;7.080;2023-12-20T03:11:10;19.37;;;5.20;;
5890;SDS011;2971;52.420;7.080;2023-12-20T03:13:37;16.83;;;5.07;;
5890;SDS011;2971;52.420;7.080;2023-12-20T03:16:07;15.20;;;4.43;;
5890;SDS011;2971;52.420;7.080;2023-12-20T03:18:33;12.30;;;4.27;;
5890;SDS011;2971;52.420;7.080;2023-12-20T03:20:59;14.93;;;4.33;;
5890;SDS011;2971;52.420;7.080;2023-12-20T03:23:24;16.53;;;4.80;;
5890;SDS011;2971;52.420;7.080;2023-12-20T03:25:51;13.63;;;4.27;;
5890;SDS011;2971;52.420;7.080;2023-12-20T03:28:17;17.67;;;3.83;;
5890;SDS011;2971;52.420;7.080;2023-12-20T03:30:44;24.23;;;4.83;;
5890;SDS011;2971;52.420;7.080;2023-12-20T03:33:09;18.63;;;4.87;;
5890;SDS011;2971;52.420;7.080;2023-12-20T03:35:35;18.23;;;4.43;;
5890;SDS011;2971;52.420;7.080;2023-12-20T03:38:00;23.23;;;4.90;;
5890;SDS011;2971;52.420;7.080;2023-12-20T03:40:26;18.50;;;4.73;;
5890;SDS011;2971;52.420;7.080;2023-12-20T03:42:52;21.70;;;5.30;;
5890;SDS011;2971;52.420;7.080;2023-12-20T03:45:17;21.83;;;5.40;;
5890;SDS011;2971;52.420;7.080;2023-12-20T03:47:44;17.70;;;5.43;;
5890;SDS011;2971;52.420;7.080;2023-12-20T03:50:10;23.60;;;5.40;;
5890;SDS011;2971;52.420;7.080;2023-12-20T03:52:35;23.90;;;4.87;;
5890;SDS011;2971;52.420;7.080;2023-12-20T03:55:01;24.77;;;5.60;;
5890;SDS011;2971;52.420;7.080;2023-12-20T03:57:27;22.47;;;5.60;;
5890;SDS011;2971;52.420;7.080;2023-12-20T03:59:52;19.10;;;4.73;;
5890;SDS011;2971;52.420;7.080;2023-12-20T04:02:18;21.03;;;5.07;;
5890;SDS011;2971;52.420;7.080;2023-12-20T04:04:45;20.00;;;4.70;;
5890;SDS011;2971;52.420;7.080;2023-12-20T04:07:10;22.17;;;4.90;;
5890;SDS011;2971;52.420;7.080;2023-12-20T04:09:36;19.93;;;4.60;;
5890;SDS011;2971;52.420;7.080;2023-12-20T04:12:01;22.67;;;5.03;;
5890;SDS011;2971;52.420;7.080;2023-12-20T04:14:27;17.30;;;4.43;;
5890;SDS011;2971;52.420;7.080;2023-12-20T04:16:53;20.33;;;4.80;;
5890;SDS011;2971;52.420;7.080;2023-12-20T04:19:19;22.47;;;4.43;;
5890;SDS011;2971;52.420;7.080;2023-12-20T04:21:46;20.07;;;5.37;;
5890;SDS011;2971;52.420;7.080;2023-12-20T04:24:11;21.17;;;4.87;;
5890;SDS011;2971;52.420;7.080;2023-12-20T04:26:37;18.50;;;4.53;;
5890;SDS011;2971;52.420;7.080;2023-12-20T04:29:02;24.37;;;5.23;;
5890;SDS011;2971;52.420;7.080;2023-12-20T04:31:28;16.77;;;5.03;;
5890;SDS011;2971;52.420;7.080;2023-12-20T04:33:53;17.43;;;4.83;;
5890;SDS011;2971;52.420;7.080;2023-12-20T04:36:19;19.20;;;4.90;;
5890;SDS011;2971;52.420;7.080;2023-12-20T04:38:46;22.63;;;5.60;;
5890;SDS011;2971;52.420;7.080;2023-12-20T04:41:12;23.80;;;5.47;;
5890;SDS011;2971;52.420;7.080;2023-12-20T04:43:40;22.23;;;4.87;;
5890;SDS011;2971;52.420;7.080;2023-12-20T04:46:07;25.50;;;5.53;;
5890;SDS011;2971;52.420;7.080;2023-12-20T04:48:32;22.70;;;5.43;;
5890;SDS011;2971;52.420;7.080;2023-12-20T04:50:58;24.83;;;5.83;;
5890;SDS011;2971;52.420;7.080;2023-12-20T04:53:23;25.87;;;5.30;;
5890;SDS011;2971;52.420;7.080;2023-12-20T04:55:50;18.43;;;5.40;;
5890;SDS011;2971;52.420;7.080;2023-12-20T04:58:16;23.10;;;6.10;;
5890;SDS011;2971;52.420;7.080;2023-12-20T05:00:42;19.43;;;5.07;;
5890;SDS011;2971;52.420;7.080;2023-12-20T05:03:08;18.40;;;5.57;;
5890;SDS011;2971;52.420;7.080;2023-12-20T05:05:34;20.00;;;5.17;;
5890;SDS011;2971;52.420;7.080;2023-12-20T05:08:00;28.20;;;5.13;;
5890;SDS011;2971;52.420;7.080;2023-12-20T05:10:25;26.93;;;5.17;;
5890;SDS011;2971;52.420;7.080;2023-12-20T05:12:53;20.83;;;5.03;;
5890;SDS011;2971;52.420;7.080;2023-12-20T05:15:19;17.47;;;5.43;;
5890;SDS011;2971;52.420;7.080;2023-12-20T05:17:44;24.23;;;5.83;;
5890;SDS011;2971;52.420;7.080;2023-12-20T05:20:10;18.53;;;5.07;;
5890;SDS011;2971;52.420;7.080;2023-12-20T05:22:35;22.97;;;5.80;;
5890;SDS011;2971;52.420;7.080;2023-12-20T05:25:01;21.60;;;5.50;;
5890;SDS011;2971;52.420;7.080;2023-12-20T05:27:27;26.00;;;5.57;;
5890;SDS011;2971;52.420;7.080;2023-12-20T05:29:54;18.40;;;4.83;;
5890;SDS011;2971;52.420;7.080;2023-12-20T05:32:22;21.87;;;5.63;;
5890;SDS011;2971;52.420;7.080;2023-12-20T05:34:48;21.67;;;5.43;;
5890;SDS011;2971;52.420;7.080;2023-12-20T05:37:14;22.63;;;5.50;;
5890;SDS011;2971;52.420;7.080;2023-12-20T05:39:39;23.07;;;5.20;;
5890;SDS011;2971;52.420;7.080;2023-12-20T05:42:05;21.67;;;5.20;;
5890;SDS011;2971;52.420;7.080;2023-12-20T05:44:30;22.03;;;5.07;;
5890;SDS011;2971;52.420;7.080;2023-12-20T05:46:57;20.73;;;5.07;;
5890;SDS011;2971;52.420;7.080;2023-12-20T05:49:23;18.93;;;5.00;;
5890;SDS011;2971;52.420;7.080;2023-12-20T05:51:48;22.13;;;5.23;;
5890;SDS011;2971;52.420;7.080;2023-12-20T05:54:16;22.13;;;5.67;;
5890;SDS011;2971;52.420;7.080;2023-12-20T05:56:41;23.67;;;5.67;;
5890;SDS011;2971;52.420;7.080;2023-12-20T05:59:07;23.67;;;5.20;;
5890;SDS011;2971;52.420;7.080;2023-12-20T06:01:33;21.83;;;5.40;;
5890;SDS011;2971;52.420;7.080;2023-12-20T06:04:00;22.47;;;5.77;;
5890;SDS011;2971;52.420;7.080;2023-12-20T06:06:26;20.63;;;5.33;;
5890;SDS011;2971;52.420;7.080;2023-12-20T06:08:51;23.67;;;5.73;;
5890;SDS011;2971;52.420;7.080;2023-12-20T06:11:17;27.53;;;5.83;;
5890;SDS011;2971;52.420;7.080;2023-12-20T06:13:43;22.03;;;5.53;;
5890;SDS011;2971;52.420;7.080;2023-12-20T06:16:08;24.13;;;5.83;;
5890;SDS011;2971;52.420;7.080;2023-12-20T06:18:34;22.80;;;5.37;;
5890;SDS011;2971;52.420;7.080;2023-12-20T06:21:01;20.70;;;5.00;;
5890;SDS011;2971;52.420;7.080;2023-12-20T06:23:27;22.57;;;5.47;;
5890;SDS011;2971;52.420;7.080;2023-12-20T06:25:53;23.63;;;5.00;;
5890;SDS011;2971;52.420;7.080;2023-12-20T06:28:19;28.50;;;6.00;;
5890;SDS011;2971;52.420;7.080;2023-12-20T06:30:45;23.30;;;5.70;;
5890;SDS011;2971;52.420;7.080;2023-12-20T06:33:12;21.00;;;5.40;;
5890;SDS011;2971;52.420;7.080;2023-12-20T06:35:38;19.77;;;5.57;;
5890;SDS011;2971;52.420;7.080;2023-12-20T06:38:05;25.53;;;5.10;;
5890;SDS011;2971;52.420;7.080;2023-12-20T06:40:31;21.50;;;5.50;;
5890;SDS011;2971;52.420;7.080;2023-12-20T06:42:56;19.37;;;5.83;;
5890;SDS011;2971;52.420;7.080;2023-12-20T06:45:22;23.87;;;5.80;;
5890;SDS011;2971;52.420;7.080;2023-12-20T06:47:48;22.00;;;5.60;;
5890;SDS011;2971;52.420;7.080;2023-12-20T06:50:13;22.83;;;5.50;;
5890;SDS011;2971;52.420;7.080;2023-12-20T06:52:39;23.70;;;5.77;;
5890;SDS011;2971;52.420;7.080;2023-12-20T06:55:06;20.00;;;5.00;;
5890;SDS011;2971;52.420;7.080;2023-12-20T06:57:32;24.43;;;5.93;;
5890;SDS011;2971;52.420;7.080;2023-12-20T06:59:58;20.73;;;5.40;;
5890;SDS011;2971;52.420;7.080;2023-12-20T07:02:23;20.83;;;5.57;;
5890;SDS011;2971;52.420;7.080;2023-12-20T07:04:49;18.20;;;4.60;;
5890;SDS011;2971;52.420;7.080;2023-12-20T07:07:14;22.90;;;5.90;;
5890;SDS011;2971;52.420;7.080;2023-12-20T07:09:40;26.57;;;5.87;;
5890;SDS011;2971;52.420;7.080;2023-12-20T07:12:09;23.67;;;5.43;;
5890;SDS011;2971;52.420;7.080;2023-12-20T07:14:34;29.20;;;5.43;;
5890;SDS011;2971;52.420;7.080;2023-12-20T07:17:00;22.30;;;5.63;;
5890;SDS011;2971;52.420;7.080;2023-12-20T07:19:26;21.87;;;5.77;;
5890;SDS011;2971;52.420;7.080;2023-12-20T07:21:51;22.50;;;5.27;;
5890;SDS011;2971;52.420;7.080;2023-12-20T07:24:18;22.93;;;5.10;;
5890;SDS011;2971;52.420;7.080;2023-12-20T07:26:43;21.27;;;5.50;;
5890;SDS011;2971;52.420;7.080;2023-12-20T07:29:10;25.43;;;5.50;;
5890;SDS011;2971;52.420;7.080;2023-12-20T07:31:36;24.60;;;5.70;;
5890;SDS011;2971;52.420;7.080;2023-12-20T07:34:02;23.50;;;5.80;;
5890;SDS011;2971;52.420;7.080;2023-12-20T07:36:27;23.00;;;6.13;;
5890;SDS011;2971;52.420;7.080;2023-12-20T07:38:53;22.67;;;6.30;;
5890;SDS011;2971;52.420;7.080;2023-12-20T07:41:19;18.80;;;5.37;;
5890;SDS011;2971;52.420;7.080;2023-12-20T07:43:46;19.70;;;5.27;;
5890;SDS011;2971;52.420;7.080;2023-12-20T07:46:13;24.23;;;5.17;;
5890;SDS011;2971;52.420;7.080;2023-12-20T07:48:39;24.73;;;5.53;;
5890;SDS011;2971;52.420;7.080;2023-12-20T07:51:05;23.47;;;5.80;;
5890;SDS011;2971;52.420;7.080;2023-12-20T07:53:32;21.70;;;6.03;;
5890;SDS011;2971;52.420;7.080;2023-12-20T07:55:58;18.17;;;5.00;;
5890;SDS011;2971;52.420;7.080;2023-12-20T07:58:24;24.43;;;6.23;;
5890;SDS011;2971;52.420;7.080;2023-12-20T08:00:49;21.13;;;5.10;;
5890;SDS011;2971;52.420;7.080;2023-12-20T08:03:16;19.03;;;5.07;;
5890;SDS011;2971;52.420;7.080;2023-12-20T08:05:42;23.97;;;5.20;;
5890;SDS011;2971;52.420;7.080;2023-12-20T08:08:07;20.00;;;5.67;;
5890;SDS011;2971;52.420;7.080;2023-12-20T08:10:33;20.43;;;5.57;;
5890;SDS011;2971;52.420;7.080;2023-12-20T08:12:58;23.27;;;5.93;;
5890;SDS011;2971;52.420;7.080;2023-12-20T08:15:24;22.37;;;5.07;;
5890;SDS011;2971;52.420;7.080;2023-12-20T08:17:49;27.17;;;6.17;;
5890;SDS011;2971;52.420;7.080;2023-12-20T08:20:17;20.07;;;5.90;;
5890;SDS011;2971;52.420;7.080;2023-12-20T08:22:43;21.47;;;4.93;;
5890;SDS011;2971;52.420;7.080;2023-12-20T08:25:08;26.77;;;5.80;;
5890;SDS011;2971;52.420;7.080;2023-12-20T08:27:34;18.67;;;5.50;;
5890;SDS011;2971;52.420;7.080;2023-12-20T08:30:03;25.57;;;6.93;;
5890;SDS011;2971;52.420;7.080;2023-12-20T08:32:29;23.70;;;6.23;;
5890;SDS011;2971;52.420;7.080;2023-12-20T08:34:55;22.13;;;5.27;;
5890;SDS011;2971;52.420;7.080;2023-12-20T08:37:22;18.90;;;5.57;;
5890;SDS011;2971;52.420;7.080;2023-12-20T08:39:48;23.27;;;5.73;;
5890;SDS011;2971;52.420;7.080;2023-12-20T08:42:13;18.23;;;5.33;;
5890;SDS011;2971;52.420;7.080;2023-12-20T08:44:39;16.70;;;5.47;;
5890;SDS011;2971;52.420;7.080;2023-12-20T08:47:05;20.73;;;5.03;;
5890;SDS011;2971;52.420;7.080;2023-12-20T08:49:30;22.50;;;5.43;;
5890;SDS011;2971;52.420;7.080;2023-12-20T08:51:56;25.97;;;5.73;;
5890;SDS011;2971;52.420;7.080;2023-12-20T08:54:23;24.50;;;5.70;;
5890;SDS011;2971;52.420;7.080;2023-12-20T08:56:49;22.53;;;5.93;;
5890;SDS011;2971;52.420;7.080;2023-12-20T08:59:15;24.73;;;6.30;;
5890;SDS011;2971;52.420;7.080;2023-12-20T09:01:41;22.73;;;5.70;;
5890;SDS011;2971;52.420;7.080;2023-12-20T09:04:06;24.50;;;6.00;;
5890;SDS011;2971;52.420;7.080;2023-12-20T09:06:32;19.63;;;5.60;;
5890;SDS011;2971;52.420;7.080;2023-12-20T09:08:58;27.73;;;6.03;;
5890;SDS011;2971;52.420;7.080;2023-12-20T09:11:25;26.47;;;5.93;;
5890;SDS011;2971;52.420;7.080;2023-12-20T09:13:50;21.80;;;5.53;;
5890;SDS011;2971;52.420;7.080;2023-12-20T09:16:16;18.07;;;5.00;;
5890;SDS011;2971;52.420;7.080;2023-12-20T09:18:41;24.37;;;6.47;;
5890;SDS011;2971;52.420;7.080;2023-12-20T09:21:07;28.07;;;6.07;;
5890;SDS011;2971;52.420;7.080;2023-12-20T09:23:33;22.33;;;6.20;;
5890;SDS011;2971;52.420;7.080;2023-12-20T09:25:58;25.20;;;6.53;;
5890;SDS011;2971;52.420;7.080;2023-12-20T09:28:25;22.70;;;5.73;;
5890;SDS011;2971;52.420;7.080;2023-12-20T09:30:51;27.23;;;6.80;;
5890;SDS011;2971;52.420;7.080;2023-12-20T09:33:16;23.07;;;6.03;;
5890;SDS011;2971;52.420;7.080;2023-12-20T09:35:42;21.43;;;6.10;;
5890;SDS011;2971;52.420;7.080;2023-12-20T09:38:08;20.57;;;6.63;;
5890;SDS011;2971;52.420;7.080;2023-12-20T09:40:33;22.30;;;5.80;;
5890;SDS011;2971;52.420;7.080;2023-12-20T09:43:02;23.13;;;6.53;;
5890;SDS011;2971;52.420;7.080;2023-12-20T09:45:30;20.27;;;5.97;;
5890;SDS011;2971;52.420;7.080;2023-12-20T09:47:57;21.63;;;5.83;;
5890;SDS011;2971;52.420;7.080;2023-12-20T09:50:23;20.67;;;6.03;;
5890;SDS011;2971;52.420;7.080;2023-12-20T09:52:49;26.40;;;6.50;;
5890;SDS011;2971;52.420;7.080;2023-12-20T09:55:16;19.37;;;6.07;;
5890;SDS011;2971;52.420;7.080;2023-12-20T09:57:42;21.37;;;6.47;;
5890;SDS011;2971;52.420;7.080;2023-12-20T10:00:09;25.47;;;7.60;;
5890;SDS011;2971;52.420;7.080;2023-12-20T10:02:36;24.63;;;5.87;;
5890;SDS011;2971;52.420;7.080;2023-12-20T10:05:06;23.63;;;6.30;;
5890;SDS011;2971;52.420;7.080;2023-12-20T10:07:34;22.63;;;6.60;;
5890;SDS011;2971;52.420;7.080;2023-12-20T10:09:59;24.77;;;6.10;;
5890;SDS011;2971;52.420;7.080;2023-12-20T10:12:25;25.20;;;6.20;;
5890;SDS011;2971;52.420;7.080;2023-12-20T10:14:51;25.33;;;6.60;;
5890;SDS011;2971;52.420;7.080;2023-12-20T10:17:16;20.30;;;5.60;;
5890;SDS011;2971;52.420;7.080;2023-12-20T10:19:43;23.47;;;6.23;;
5890;SDS011;2971;52.420;7.080;2023-12-20T10:22:09;24.57;;;6.10;;
5890;SDS011;2971;52.420;7.080;2023-12-20T10:24:35;21.70;;;6.27;;
5890;SDS011;2971;52.420;7.080;2023-12-20T10:27:01;27.23;;;6.47;;
5890;SDS011;2971;52.420;7.080;2023-12-20T10:29:30;25.10;;;6.23;;
5890;SDS011;2971;52.420;7.080;2023-12-20T10:31:57;27.00;;;6.80;;
5890;SDS011;2971;52.420;7.080;2023-12-20T10:34:23;21.07;;;6.30;;
5890;SDS011;2971;52.420;7.080;2023-12-20T10:36:51;22.67;;;6.10;;
5890;SDS011;2971;52.420;7.080;2023-12-20T10:39:17;23.17;;;6.33;;
5890;SDS011;2971;52.420;7.080;2023-12-20T10:41:45;21.60;;;5.67;;
5890;SDS011;2971;52.420;7.080;2023-12-20T10:44:11;24.67;;;6.37;;
5890;SDS011;2971;52.420;7.080;2023-12-20T10:46:37;23.73;;;6.70;;
5890;SDS011;2971;52.420;7.080;2023-12-20T10:49:05;22.17;;;6.00;;
5890;SDS011;2971;52.420;7.080;2023-12-20T10:51:31;19.77;;;5.97;;
5890;SDS011;2971;52.420;7.080;2023-12-20T10:53:58;23.80;;;6.07;;
5890;SDS011;2971;52.420;7.080;2023-12-20T10:56:23;23.73;;;6.57;;
5890;SDS011;2971;52.420;7.080;2023-12-20T10:58:50;27.60;;;6.47;;
5890;SDS011;2971;52.420;7.080;2023-12-20T11:01:16;20.93;;;6.63;;
5890;SDS011;2971;52.420;7.080;2023-12-20T11:03:43;26.57;;;6.50;;
5890;SDS011;2971;52.420;7.080;2023-12-20T11:06:14;23.53;;;6.77;;
5890;SDS011;2971;52.420;7.080;2023-12-20T11:08:51;26.10;;;6.93;;
5890;SDS011;2971;52.420;7.080;2023-12-20T11:11:23;25.23;;;6.03;;
5890;SDS011;2971;52.420;7.080;2023-12-20T11:13:53;12.23;;;2.90;;
5890;SDS011;2971;52.420;7.080;2023-12-20T11:16:20;8.13;;;2.83;;
5890;SDS011;2971;52.420;7.080;2023-12-20T11:18:46;10.50;;;2.47;;
5890;SDS011;2971;52.420;7.080;2023-12-20T11:21:12;8.40;;;2.37;;
5890;SDS011;2971;52.420;7.080;2023-12-20T11:23:39;7.63;;;2.37;;
5890;SDS011;2971;52.420;7.080;2023-12-20T11:26:07;10.90;;;2.53;;
5890;SDS011;2971;52.420;7.080;2023-12-20T11:28:34;11.47;;;3.00;;
5890;SDS011;2971;52.420;7.080;2023-12-20T11:31:00;11.53;;;2.90;;
5890;SDS011;2971;52.420;7.080;2023-12-20T11:33:27;9.80;;;2.70;;
5890;SDS011;2971;52.420;7.080;2023-12-20T11:35:55;13.03;;;2.97;;
5890;SDS011;2971;52.420;7.080;2023-12-20T11:38:21;10.23;;;3.10;;
5890;SDS011;2971;52.420;7.080;2023-12-20T11:40:48;12.40;;;3.37;;
5890;SDS011;2971;52.420;7.080;2023-12-20T11:43:15;12.97;;;3.33;;
5890;SDS011;2971;52.420;7.080;2023-12-20T11:45:56;14.47;;;3.17;;
5890;SDS011;2971;52.420;7.080;2023-12-20T11:48:28;14.27;;;3.60;;
5890;SDS011;2971;52.420;7.080;2023-12-20T11:50:53;9.87;;;3.10;;
5890;SDS011;2971;52.420;7.080;2023-12-20T11:53:19;14.83;;;3.47;;
5890;SDS011;2971;52.420;7.080;2023-12-20T11:55:47;14.10;;;3.53;;
5890;SDS011;2971;52.420;7.080;2023-12-20T11:58:12;14.10;;;3.57;;
5890;SDS011;2971;52.420;7.080;2023-12-20T12:00:38;11.17;;;4.03;;
5890;SDS011;2971;52.420;7.080;2023-12-20T12:03:05;12.67;;;3.70;;
5890;SDS011;2971;52.420;7.080;2023-12-20T12:05:30;7.90;;;3.07;;
5890;SDS011;2971;52.420;7.080;2023-12-20T12:07:58;9.70;;;3.40;;
5890;SDS011;2971;52.420;7.080;2023-12-20T12:10:23;10.20;;;3.10;;
5890;SDS011;2971;52.420;7.080;2023-12-20T12:12:49;14.17;;;3.03;;
5890;SDS011;2971;52.420;7.080;2023-12-20T12:15:15;9.93;;;3.57;;
5890;SDS011;2971;52.420;7.080;2023-12-20T12:17:40;11.93;;;3.07;;
5890;SDS011;2971;52.420;7.080;2023-12-20T12:20:08;9.43;;;2.80;;
5890;SDS011;2971;52.420;7.080;2023-12-20T12:22:35;12.20;;;2.60;;
5890;SDS011;2971;52.420;7.080;2023-12-20T12:25:09;12.43;;;3.40;;
5890;SDS011;2971;52.420;7.080;2023-12-20T12:27:36;10.63;;;2.30;;
5890;SDS011;2971;52.420;7.080;2023-12-20T12:30:03;9.60;;;3.17;;
5890;SDS011;2971;52.420;7.080;2023-12-20T12:32:32;8.17;;;2.53;;
5890;SDS011;2971;52.420;7.080;2023-12-20T12:34:57;9.10;;;2.40;;
5890;SDS011;2971;52.420;7.080;2023-12-20T12:37:24;8.70;;;2.60;;
5890;SDS011;2971;52.420;7.080;2023-12-20T12:39:53;11.03;;;3.33;;
5890;SDS011;2971;52.420;7.080;2023-12-20T12:42:18;9.40;;;2.63;;
5890;SDS011;2971;52.420;7.080;2023-12-20T12:44:44;6.43;;;2.40;;
5890;SDS011;2971;52.420;7.080;2023-12-20T12:47:09;9.20;;;3.00;;
5890;SDS011;2971;52.420;7.080;2023-12-20T12:49:35;10.47;;;2.57;;
5890;SDS011;2971;52.420;7.080;2023-12-20T12:52:01;11.10;;;3.10;;
5890;SDS011;2971;52.420;7.080;2023-12-20T12:54:28;9.33;;;2.90;;
5890;SDS011;2971;52.420;7.080;2023-12-20T12:56:53;8.23;;;2.63;;
5890;SDS011;2971;52.420;7.080;2023-12-20T12:59:19;7.53;;;2.60;;
5890;SDS011;2971;52.420;7.080;2023-12-20T13:01:45;7.80;;;2.60;;
5890;SDS011;2971;52.420;7.080;2023-12-20T13:04:10;12.63;;;2.90;;
5890;SDS011;2971;52.420;7.080;2023-12-20T13:06:36;10.20;;;2.93;;
5890;SDS011;2971;52.420;7.080;2023-12-20T13:09:02;8.80;;;2.50;;
5890;SDS011;2971;52.420;7.080;2023-12-20T13:11:29;6.60;;;2.60;;
5890;SDS011;2971;52.420;7.080;2023-12-20T13:13:56;10.63;;;2.43;;
5890;SDS011;2971;52.420;7.080;2023-12-20T13:16:22;8.03;;;2.57;;
5890;SDS011;2971;52.420;7.080;2023-12-20T13:18:48;9.30;;;2.77;;
5890;SDS011;2971;52.420;7.080;2023-12-20T13:21:14;9.67;;;2.70;;
5890;SDS011;2971;52.420;7.080;2023-12-20T13:23:39;9.80;;;3.03;;
5890;SDS011;2971;52.420;7.080;2023-12-20T13:26:05;6.77;;;2.40;;
5890;SDS011;2971;52.420;7.080;2023-12-20T13:28:32;10.83;;;2.93;;
5890;SDS011;2971;52.420;7.080;2023-12-20T13:30:57;10.80;;;3.13;;
5890;SDS011;2971;52.420;7.080;2023-12-20T13:33:23;11.33;;;3.10;;
5890;SDS011;2971;52.420;7.080;2023-12-20T13:35:49;9.63;;;3.07;;
5890;SDS011;2971;52.420;7.080;2023-12-20T13:38:14;9.93;;;3.00;;
5890;SDS011;2971;52.420;7.080;2023-12-20T13:40:40;16.23;;;3.43;;
5890;SDS011;2971;52.420;7.080;2023-12-20T13:43:05;9.47;;;3.17;;
5890;SDS011;2971;52.420;7.080;2023-12-20T13:45:32;9.07;;;3.03;;
5890;SDS011;2971;52.420;7.080;2023-12-20T13:47:58;13.83;;;3.60;;
5890;SDS011;2971;52.420;7.080;2023-12-20T13:50:24;10.23;;;3.20;;
5890;SDS011;2971;52.420;7.080;2023-12-20T13:52:51;11.93;;;2.93;;
5890;SDS011;2971;52.420;7.080;2023-12-20T13:55:17;8.83;;;2.73;;
5890;SDS011;2971;52.420;7.080;2023-12-20T13:57:42;9.53;;;2.80;;
5890;SDS011;2971;52.420;7.080;2023-12-20T14:00:08;14.73;;;3.43;;
5890;SDS011;2971;52.420;7.080;2023-12-20T14:02:41;10.80;;;3.17;;
5890;SDS011;2971;52.420;7.080;2023-12-20T14:05:07;8.23;;;2.90;;
5890;SDS011;2971;52.420;7.080;2023-12-20T14:07:33;12.20;;;3.27;;
5890;SDS011;2971;52.420;7.080;2023-12-20T14:09:58;14.33;;;3.60;;
5890;SDS011;2971;52.420;7.080;2023-12-20T14:12:24;12.40;;;4.03;;
5890;SDS011;2971;52.420;7.080;2023-12-20T14:14:50;12.00;;;2.97;;
5890;SDS011;2971;52.420;7.080;2023-12-20T14:17:15;11.93;;;3.37;;
5890;SDS011;2971;52.420;7.080;2023-12-20T14:19:42;9.93;;;3.53;;
5890;SDS011;2971;52.420;7.080;2023-12-20T14:22:08;12.17;;;3.97;;
5890;SDS011;2971;52.420;7.080;2023-12-20T14:24:34;13.57;;;3.93;;
5890;SDS011;2971;52.420;7.080;2023-12-20T14:27:00;16.43;;;4.47;;
5890;SDS011;2971;52.420;7.080;2023-12-20T14:29:25;18.40;;;4.83;;
5890;SDS011;2971;52.420;7.080;2023-12-20T14:31:52;16.10;;;4.90;;
5890;SDS011;2971;52.420;7.080;2023-12-20T14:34:18;15.37;;;4.43;;
5890;SDS011;2971;52.420;7.080;2023-12-20T14:36:45;14.70;;;3.77;;
5890;SDS011;2971;52.420;7.080;2023-12-20T14:39:10;17.00;;;4.60;;
5890;SDS011;2971;52.420;7.080;2023-12-20T14:41:38;12.97;;;4.03;;
5890;SDS011;2971;52.420;7.080;2023-12-20T14:44:05;12.97;;;4.00;;
5890;SDS011;2971;52.420;7.080;2023-12-20T14:46:30;12.90;;;4.13;;
5890;SDS011;2971;52.420;7.080;2023-12-20T14:48:56;11.40;;;4.23;;
5890;SDS011;2971;52.420;7.080;2023-12-20T14:51:21;16.40;;;4.13;;
5890;SDS011;2971;52.420;7.080;2023-12-20T14:53:49;14.77;;;4.67;;
5890;SDS011;2971;52.420;7.080;2023-12-20T14:56:14;15.23;;;4.47;;